Terminal Aerodrome Forecast
Issued by NWS Tallahassee, FL

Home | Current Version | Previous Version | Text Only | Print | Product List | Glossary On
Versions: 1 2 3 4 5 6 7 8 9 10 11 12 13 14 15 16 17 18
000
FTUS42 KTAE 311738
TAFTLH
TAF
KTLH 311738Z 3118/0118 18007KT P6SM VCTS SCT025CB BKN040
      TEMPO 3118/3122 VRB15G25KT 3SM TSRA BR BKN025CB
     FM010100 14003KT P6SM SCT040 BKN100
     FM011500 18006KT P6SM VCTS SCT025CB BKN040
      TEMPO 0115/0118 VRB15G25KT 3SM TSRA BR BKN025CB=

USA.gov is the U.S. government's official web portal to all federal, state and local government web resources and services.